Aviation Forecast - National Meteorological Service of Belize
 Sunday, December 09, 2018     |     Print Forecast

From 1200, December 09, 2018   |   To 2400, December 09, 2018

All Heights in the forecast are above sea level. PS= Positive, MS= Minus. All times are UTC.

GENERALLY FAIR WEATHER PREVAILS...
Height (ft) Wind (True Degrees and Knots) Temperature (°C)
Surface 31003 BECMG 10010 PS 31-34
2,000 13010 PS 21
5,000 17010 PS 17
10,000 02510 PS 10
GREATER THAN 10KM. 3-5KM IN SHRA/TSRA. 500M IN HILL FOG.
SUNNY WITH CLOUDY SPELLS AND ISOLATED SHOWERS THIS MORNING. CLOUDY SPELLS THIS AFTERNOON WITH A FEW SHOWERS AND ISOLATED THUNDERSTORMS OVER INLAND AREAS.
LOW CLOUDS COVERING HILLS. MOD TURB NEAR TCU/CB.
RISING
CLOUDY SPELLS WITH A FEW SHOWERS AND ISOLATED THUNDERSTORMS ALONG THE COAST AND OVER THE SOUTH.
090900Z 0912/1012 31003KT 9999 SCT023 PROB30 0912/0914 0300FG BKN003 BECMG 0914/0916 10010KT PROB30 TEMPO 1003/1012 5000 SHRA BKN015=
Belize
05:30 December 09, 2018

Forecaster: Wellington, Francisca

Updated at: Dec 09, 2018 05:33 AM